createdAt,value
2022-08-02T00:00:38.000Z,290.52
2022-08-02T00:02:05.000Z,290.4
2022-08-02T00:04:11.000Z,290.46
2022-08-02T00:05:37.000Z,290.46
2022-08-02T00:07:44.000Z,290.52
2022-08-02T00:09:10.000Z,290.46
2022-08-02T00:11:17.000Z,290.4
2022-08-02T00:12:44.000Z,290.34
2022-08-02T00:14:50.000Z,290.27
2022-08-02T00:16:16.000Z,290.27
2022-08-02T00:18:23.000Z,290.15
2022-08-02T00:21:14.000Z,290.09
2022-08-02T00:22:41.000Z,290.09
2022-08-02T00:24:47.000Z,289.84
2022-08-02T00:26:13.000Z,289.71
2022-08-02T00:28:19.000Z,289.71
2022-08-02T00:29:52.000Z,289.77
2022-08-02T00:31:58.000Z,289.84
2022-08-02T00:33:25.000Z,289.77
2022-08-02T00:36:34.000Z,289.84
2022-08-02T00:38:00.000Z,289.77
2022-08-02T00:40:06.000Z,289.65
2022-08-02T00:41:33.000Z,289.52
2022-08-02T00:43:39.000Z,289.65
2022-08-02T00:45:05.000Z,289.71
2022-08-02T00:47:11.000Z,289.65
2022-08-02T00:48:44.000Z,289.59
2022-08-02T00:50:50.000Z,289.4
2022-08-02T00:52:16.000Z,289.34
2022-08-02T00:54:23.000Z,289.34
2022-08-02T00:55:49.000Z,289.4
2022-08-02T00:57:56.000Z,289.4
2022-08-02T01:00:50.000Z,289.27
2022-08-02T01:02:17.000Z,289.34
2022-08-02T01:04:23.000Z,289.4
2022-08-02T01:05:56.000Z,289.34
2022-08-02T01:08:15.000Z,289.27
2022-08-02T01:09:42.000Z,289.27
2022-08-02T01:11:48.000Z,289.02
2022-08-02T01:13:14.000Z,289.02
2022-08-02T01:15:20.000Z,289.02
2022-08-02T01:17:00.000Z,288.96
2022-08-02T01:19:06.000Z,289.02
2022-08-02T01:20:40.000Z,289.02
2022-08-02T01:22:46.000Z,288.96
2022-08-02T01:24:26.000Z,289.02
2022-08-02T01:26:32.000Z,288.84
2022-08-02T01:27:58.000Z,288.84
2022-08-02T01:30:04.000Z,288.84
2022-08-02T01:31:31.000Z,288.77
2022-08-02T01:33:37.000Z,288.84
2022-08-02T01:35:03.000Z,288.9
2022-08-02T01:37:09.000Z,288.84
2022-08-02T01:40:01.000Z,288.71
2022-08-02T01:41:27.000Z,288.71
2022-08-02T01:43:33.000Z,288.71
2022-08-02T01:45:00.000Z,288.52
2022-08-02T01:47:06.000Z,288.4
2022-08-02T01:48:33.000Z,288.46
2022-08-02T01:50:39.000Z,288.4
2022-08-02T01:52:05.000Z,288.27
2022-08-02T01:54:12.000Z,288.27
2022-08-02T01:55:39.000Z,288.27
2022-08-02T01:58:02.000Z,288.34
2022-08-02T01:59:29.000Z,288.4
2022-08-02T02:01:35.000Z,288.27
2022-08-02T02:03:01.000Z,288.34
2022-08-02T02:05:08.000Z,288.21
2022-08-02T02:06:34.000Z,288.09
2022-08-02T02:08:40.000Z,288.09
2022-08-02T02:10:07.000Z,288.21
2022-08-02T02:12:13.000Z,288.15
2022-08-02T02:13:40.000Z,288.21
2022-08-02T02:15:46.000Z,288.21
2022-08-02T02:18:37.000Z,288.15
2022-08-02T02:20:03.000Z,288.02
2022-08-02T02:22:09.000Z,288.02
2022-08-02T02:23:37.000Z,287.96
2022-08-02T02:25:44.000Z,287.84
2022-08-02T02:27:11.000Z,287.77
2022-08-02T02:29:17.000Z,287.84
2022-08-02T02:30:44.000Z,287.77
2022-08-02T02:32:50.000Z,287.77
2022-08-02T02:34:16.000Z,287.84
2022-08-02T02:36:23.000Z,287.77
2022-08-02T02:37:49.000Z,287.77
2022-08-02T02:39:55.000Z,287.77
2022-08-02T02:41:22.000Z,287.59
2022-08-02T02:43:28.000Z,287.52
2022-08-02T02:44:54.000Z,287.65
2022-08-02T02:47:00.000Z,287.65
2022-08-02T02:48:27.000Z,287.65
2022-08-02T02:50:33.000Z,287.65
2022-08-02T02:52:00.000Z,287.52
2022-08-02T02:54:06.000Z,287.46
2022-08-02T02:57:23.000Z,287.46
2022-08-02T02:58:50.000Z,287.52
2022-08-02T03:00:56.000Z,287.52
2022-08-02T03:02:23.000Z,287.52
2022-08-02T03:04:29.000Z,287.59
2022-08-02T03:06:22.000Z,287.59
2022-08-02T03:08:28.000Z,287.46
2022-08-02T03:09:54.000Z,287.46
2022-08-02T03:12:01.000Z,287.4
2022-08-02T03:13:27.000Z,287.4
2022-08-02T03:15:41.000Z,287.4
2022-08-02T03:17:08.000Z,287.4
2022-08-02T03:19:14.000Z,287.46
2022-08-02T03:20:40.000Z,287.46
2022-08-02T03:22:46.000Z,287.4
2022-08-02T03:24:13.000Z,287.4
2022-08-02T03:26:32.000Z,287.27
2022-08-02T03:27:58.000Z,287.15
2022-08-02T03:30:04.000Z,287.09
2022-08-02T03:31:31.000Z,287.27
2022-08-02T03:33:37.000Z,287.09
2022-08-02T03:36:28.000Z,287.15
2022-08-02T03:37:55.000Z,287.27
2022-08-02T03:40:01.000Z,287.34
2022-08-02T03:41:27.000Z,287.21
2022-08-02T03:43:33.000Z,287.02
2022-08-02T03:45:00.000Z,287.09
2022-08-02T03:47:12.000Z,287.09
2022-08-02T03:48:39.000Z,287.15
2022-08-02T03:50:45.000Z,287.09
2022-08-02T03:52:11.000Z,287.09
2022-08-02T03:54:18.000Z,287.09
2022-08-02T03:55:44.000Z,287.02
2022-08-02T03:57:51.000Z,287.09
2022-08-02T03:59:17.000Z,287.02
2022-08-02T04:01:23.000Z,286.84
2022-08-02T04:02:50.000Z,286.71
2022-08-02T04:04:56.000Z,286.77
2022-08-02T04:06:22.000Z,286.77
2022-08-02T04:08:32.000Z,286.77
2022-08-02T04:10:03.000Z,286.84
2022-08-02T04:12:09.000Z,286.9
2022-08-02T04:15:01.000Z,286.84
2022-08-02T04:16:27.000Z,286.77
2022-08-02T04:18:33.000Z,286.84
2022-08-02T04:20:00.000Z,286.84
2022-08-02T04:22:06.000Z,286.84
2022-08-02T04:23:33.000Z,286.9
2022-08-02T04:25:39.000Z,286.96
2022-08-02T04:27:06.000Z,287.02
2022-08-02T04:30:19.000Z,286.96
2022-08-02T04:31:46.000Z,286.9
2022-08-02T04:33:52.000Z,286.9
2022-08-02T04:35:19.000Z,286.77
2022-08-02T04:37:25.000Z,286.84
2022-08-02T04:38:51.000Z,286.9
2022-08-02T04:40:57.000Z,287.02
2022-08-02T04:42:24.000Z,287.15
2022-08-02T04:44:30.000Z,287.21
2022-08-02T04:45:57.000Z,287.27
2022-08-02T04:48:03.000Z,287.34
2022-08-02T04:49:30.000Z,287.4
2022-08-02T04:51:36.000Z,287.34
2022-08-02T04:54:28.000Z,287.46
2022-08-02T04:55:54.000Z,287.34
2022-08-02T04:58:00.000Z,287.21
2022-08-02T04:59:38.000Z,287.21
2022-08-02T05:01:44.000Z,287.09
2022-08-02T05:03:10.000Z,287.15
2022-08-02T05:05:16.000Z,287.21
2022-08-02T05:06:43.000Z,287.27
2022-08-02T05:08:49.000Z,287.4
2022-08-02T05:10:17.000Z,287.4
2022-08-02T05:12:24.000Z,287.59
2022-08-02T05:13:50.000Z,287.71
2022-08-02T05:16:03.000Z,287.9
2022-08-02T05:17:30.000Z,287.9
2022-08-02T05:19:36.000Z,287.96
2022-08-02T05:21:06.000Z,288.09
2022-08-02T05:23:12.000Z,288.15
2022-08-02T05:24:39.000Z,288.21
2022-08-02T05:26:48.000Z,288.34
2022-08-02T05:28:15.000Z,288.4
2022-08-02T05:30:23.000Z,288.46
2022-08-02T05:33:14.000Z,288.71
2022-08-02T05:34:40.000Z,288.77
2022-08-02T05:36:49.000Z,288.84
2022-08-02T05:38:15.000Z,288.9
2022-08-02T05:40:30.000Z,288.65
2022-08-02T05:41:56.000Z,288.65
2022-08-02T05:44:02.000Z,288.77
2022-08-02T05:45:29.000Z,288.84
2022-08-02T05:47:35.000Z,289.09
2022-08-02T05:49:01.000Z,289.15
2022-08-02T05:51:08.000Z,289.21
2022-08-02T05:52:34.000Z,289.09
2022-08-02T05:54:40.000Z,288.9
2022-08-02T05:56:07.000Z,289.09
2022-08-02T05:58:13.000Z,289.27
2022-08-02T05:59:39.000Z,289.4
2022-08-02T06:01:46.000Z,289.27
2022-08-02T06:03:12.000Z,289.27
2022-08-02T06:05:18.000Z,289.52
2022-08-02T06:06:45.000Z,289.46
2022-08-02T06:08:51.000Z,289.59
2022-08-02T06:11:43.000Z,289.71
2022-08-02T06:13:27.000Z,289.84
2022-08-02T06:15:33.000Z,289.96
2022-08-02T06:17:17.000Z,290.02
2022-08-02T06:19:23.000Z,290.09
2022-08-02T06:20:50.000Z,290.09
2022-08-02T06:22:56.000Z,290.15
2022-08-02T06:24:22.000Z,290.21
2022-08-02T06:26:28.000Z,290.34
2022-08-02T06:27:55.000Z,290.4
2022-08-02T06:30:01.000Z,290.52
2022-08-02T06:31:28.000Z,290.52
2022-08-02T06:33:34.000Z,290.65
2022-08-02T06:35:00.000Z,290.77
2022-08-02T06:37:06.000Z,290.9
2022-08-02T06:38:33.000Z,291.02
2022-08-02T06:40:39.000Z,290.9
2022-08-02T06:42:05.000Z,290.9
2022-08-02T06:44:12.000Z,291.09
2022-08-02T06:46:14.000Z,291.21
2022-08-02T06:49:14.000Z,291.34
2022-08-02T06:52:06.000Z,291.46
2022-08-02T06:53:33.000Z,291.59
2022-08-02T06:55:39.000Z,291.77
2022-08-02T06:57:08.000Z,291.77
2022-08-02T06:59:14.000Z,291.77
2022-08-02T07:00:41.000Z,291.9
2022-08-02T07:02:47.000Z,291.84
2022-08-02T07:04:13.000Z,291.9
2022-08-02T07:06:24.000Z,292.09
2022-08-02T07:07:50.000Z,292.27
2022-08-02T07:09:56.000Z,292.34
2022-08-02T07:11:26.000Z,292.34
2022-08-02T07:13:32.000Z,292.52
2022-08-02T07:15:04.000Z,292.65
2022-08-02T07:17:10.000Z,292.71
2022-08-02T07:18:36.000Z,292.84
2022-08-02T07:20:43.000Z,292.96
2022-08-02T07:22:09.000Z,292.96
2022-08-02T07:24:16.000Z,292.96
2022-08-02T07:25:43.000Z,293.09
2022-08-02T07:28:08.000Z,293.21
2022-08-02T07:31:12.000Z,293.09
2022-08-02T07:32:39.000Z,293.27
2022-08-02T07:34:45.000Z,293.46
2022-08-02T07:36:17.000Z,293.34
2022-08-02T07:38:27.000Z,293.59
2022-08-02T07:39:53.000Z,293.71
2022-08-02T07:41:59.000Z,293.77
2022-08-02T07:43:26.000Z,293.84
2022-08-02T07:45:32.000Z,293.96
2022-08-02T07:47:00.000Z,294.02
2022-08-02T07:49:06.000Z,294.21
2022-08-02T07:50:33.000Z,294.27
2022-08-02T07:52:39.000Z,294.34
2022-08-02T07:54:06.000Z,294.46
2022-08-02T07:56:12.000Z,294.4
2022-08-02T07:57:38.000Z,294.59
2022-08-02T07:59:50.000Z,294.71
2022-08-02T08:01:17.000Z,294.77
2022-08-02T08:03:23.000Z,294.71
2022-08-02T08:04:50.000Z,294.71
2022-08-02T08:06:56.000Z,294.77
2022-08-02T08:09:47.000Z,294.84
2022-08-02T08:11:14.000Z,294.84
2022-08-02T08:13:20.000Z,294.96
2022-08-02T08:14:46.000Z,295.15
2022-08-02T08:16:52.000Z,295.34
2022-08-02T08:18:19.000Z,295.4
2022-08-02T08:20:25.000Z,295.27
2022-08-02T08:21:52.000Z,295.34
2022-08-02T08:23:58.000Z,295.52
2022-08-02T08:25:24.000Z,295.52
2022-08-02T08:27:31.000Z,295.4
2022-08-02T08:28:57.000Z,295.59
2022-08-02T08:31:04.000Z,295.71
2022-08-02T08:32:30.000Z,295.65
2022-08-02T08:34:37.000Z,295.52
2022-08-02T08:36:04.000Z,295.65
2022-08-02T08:38:10.000Z,295.46
2022-08-02T08:39:37.000Z,295.34
2022-08-02T08:42:02.000Z,295.52
2022-08-02T08:43:29.000Z,295.52
2022-08-02T08:45:35.000Z,295.4
2022-08-02T08:48:26.000Z,295.71
2022-08-02T08:49:56.000Z,295.96
2022-08-02T08:52:02.000Z,296.09
2022-08-02T08:53:28.000Z,295.96
2022-08-02T08:55:41.000Z,295.96
2022-08-02T08:57:07.000Z,295.9
2022-08-02T08:59:17.000Z,295.96
2022-08-02T09:00:44.000Z,296.09
2022-08-02T09:02:50.000Z,296.21
2022-08-02T09:04:17.000Z,296.21
2022-08-02T09:06:23.000Z,296.46
2022-08-02T09:07:49.000Z,296.59
2022-08-02T09:09:56.000Z,296.65
2022-08-02T09:11:22.000Z,296.71
2022-08-02T09:13:28.000Z,296.71
2022-08-02T09:15:10.000Z,296.65
2022-08-02T09:17:20.000Z,296.59
2022-08-02T09:18:46.000Z,296.59
2022-08-02T09:20:53.000Z,296.77
2022-08-02T09:22:21.000Z,296.84
2022-08-02T09:24:27.000Z,296.9
2022-08-02T09:27:21.000Z,296.84
2022-08-02T09:28:47.000Z,297.02
2022-08-02T09:30:54.000Z,297.02
2022-08-02T09:32:20.000Z,297.09
2022-08-02T09:34:26.000Z,297.46
2022-08-02T09:35:53.000Z,297.52
2022-08-02T09:38:11.000Z,297.59
2022-08-02T09:39:38.000Z,297.52
2022-08-02T09:41:50.000Z,297.27
2022-08-02T09:43:17.000Z,297.46
2022-08-02T09:45:23.000Z,297.65
2022-08-02T09:46:50.000Z,297.71
2022-08-02T09:48:56.000Z,297.65
2022-08-02T09:50:22.000Z,297.65
2022-08-02T09:52:29.000Z,297.77
2022-08-02T09:54:08.000Z,297.46
2022-08-02T09:56:14.000Z,297.59
2022-08-02T09:58:00.000Z,297.9
2022-08-02T10:00:06.000Z,298.02
2022-08-02T10:01:40.000Z,298.15
2022-08-02T10:03:55.000Z,298.21
2022-08-02T10:06:47.000Z,298.21
2022-08-02T10:08:14.000Z,298.15
2022-08-02T10:10:20.000Z,298.27
2022-08-02T10:11:46.000Z,298.27
2022-08-02T10:13:53.000Z,298.4
2022-08-02T10:15:19.000Z,298.34
2022-08-02T10:17:31.000Z,298.4
2022-08-02T10:18:57.000Z,298.59
2022-08-02T10:21:04.000Z,298.27
2022-08-02T10:22:30.000Z,298.21
2022-08-02T10:24:36.000Z,298.46
2022-08-02T10:26:03.000Z,298.46
2022-08-02T10:28:09.000Z,298.4
2022-08-02T10:29:40.000Z,298.59
2022-08-02T10:31:59.000Z,298.59
2022-08-02T10:33:25.000Z,298.65
2022-08-02T10:35:32.000Z,298.77
2022-08-02T10:36:58.000Z,298.96
2022-08-02T10:39:04.000Z,298.84
2022-08-02T10:40:31.000Z,298.96
2022-08-02T10:42:37.000Z,298.96
2022-08-02T10:45:28.000Z,299.21
2022-08-02T10:46:54.000Z,299.27
2022-08-02T10:49:01.000Z,299.27
2022-08-02T10:51:02.000Z,299.21
2022-08-02T10:53:08.000Z,299.21
2022-08-02T10:54:34.000Z,299.15
2022-08-02T10:56:41.000Z,299.21
2022-08-02T10:58:07.000Z,299.15
2022-08-02T11:00:13.000Z,299.09
2022-08-02T11:01:44.000Z,299.34
2022-08-02T11:03:50.000Z,299.59
2022-08-02T11:05:16.000Z,299.52
2022-08-02T11:07:23.000Z,299.65
2022-08-02T11:08:49.000Z,299.71
2022-08-02T11:10:55.000Z,299.59
2022-08-02T11:12:22.000Z,299.65
2022-08-02T11:14:28.000Z,299.59
2022-08-02T11:15:54.000Z,299.65
2022-08-02T11:18:01.000Z,299.71
2022-08-02T11:19:27.000Z,299.9
2022-08-02T11:21:33.000Z,299.96
2022-08-02T11:24:25.000Z,299.59
2022-08-02T11:25:51.000Z,299.71
2022-08-02T11:28:15.000Z,299.84
2022-08-02T11:29:45.000Z,300.09
2022-08-02T11:31:51.000Z,300.15
2022-08-02T11:33:20.000Z,300.34
2022-08-02T11:35:26.000Z,300.34
2022-08-02T11:36:52.000Z,300.4
2022-08-02T11:38:58.000Z,300.09
2022-08-02T11:40:25.000Z,300.09
2022-08-02T11:42:39.000Z,300.21
2022-08-02T11:44:06.000Z,300.27
2022-08-02T11:46:12.000Z,300.34
2022-08-02T11:47:38.000Z,300.4
2022-08-02T11:49:45.000Z,299.96
2022-08-02T11:51:11.000Z,299.84
2022-08-02T11:53:17.000Z,300.09
2022-08-02T11:54:44.000Z,300.15
2022-08-02T11:56:50.000Z,300.34
2022-08-02T11:58:17.000Z,300.65
2022-08-02T12:00:23.000Z,300.77
2022-08-02T12:03:20.000Z,301.09
2022-08-02T12:04:46.000Z,301.15
2022-08-02T12:06:53.000Z,301.09
2022-08-02T12:08:21.000Z,300.77
2022-08-02T12:10:29.000Z,300.96
2022-08-02T12:11:56.000Z,301.02
2022-08-02T12:14:02.000Z,301.27
2022-08-02T12:15:32.000Z,301.34
2022-08-02T12:17:38.000Z,301.46
2022-08-02T12:19:12.000Z,301.34
2022-08-02T12:21:18.000Z,301.52
2022-08-02T12:22:45.000Z,301.71
2022-08-02T12:24:51.000Z,301.52
2022-08-02T12:26:17.000Z,301.77
2022-08-02T12:28:23.000Z,301.52
2022-08-02T12:29:50.000Z,301.84
2022-08-02T12:32:03.000Z,301.71
2022-08-02T12:33:29.000Z,301.52
2022-08-02T12:35:41.000Z,301.52
2022-08-02T12:37:09.000Z,301.84
2022-08-02T12:39:15.000Z,301.96
2022-08-02T12:42:07.000Z,301.52
2022-08-02T12:43:33.000Z,301.84
2022-08-02T12:45:39.000Z,302.02
2022-08-02T12:47:10.000Z,301.96
2022-08-02T12:49:16.000Z,301.77
2022-08-02T12:50:43.000Z,301.84
2022-08-02T12:52:49.000Z,301.65
2022-08-02T12:54:16.000Z,301.71
2022-08-02T12:56:22.000Z,301.96
2022-08-02T12:57:49.000Z,302.15
2022-08-02T12:59:55.000Z,301.96
2022-08-02T13:01:21.000Z,302.02
2022-08-02T13:03:28.000Z,302.21
2022-08-02T13:05:37.000Z,301.96
2022-08-02T13:08:02.000Z,302.15
2022-08-02T13:09:28.000Z,302.34
2022-08-02T13:11:34.000Z,302.77
2022-08-02T13:13:01.000Z,302.65
2022-08-02T13:15:07.000Z,302.84
2022-08-02T13:17:11.000Z,303.02
2022-08-02T13:19:17.000Z,302.59
2022-08-02T13:22:08.000Z,302.34
2022-08-02T13:23:35.000Z,302.59
2022-08-02T13:25:59.000Z,303.02
2022-08-02T13:27:25.000Z,302.4
2022-08-02T13:29:32.000Z,302.59
2022-08-02T13:30:59.000Z,302.34
2022-08-02T13:33:38.000Z,302.52
2022-08-02T13:35:04.000Z,302.27
2022-08-02T13:37:22.000Z,302.4
2022-08-02T13:38:48.000Z,302.59
2022-08-02T13:40:54.000Z,302.46
2022-08-02T13:42:29.000Z,302.77
2022-08-02T13:44:35.000Z,303.15
2022-08-02T13:46:02.000Z,302.96
2022-08-02T13:48:08.000Z,302.46
2022-08-02T13:49:41.000Z,302.46
2022-08-02T13:51:55.000Z,302.4
2022-08-02T13:53:22.000Z,302.65
2022-08-02T13:55:28.000Z,302.77
2022-08-02T13:56:55.000Z,302.65
2022-08-02T13:59:01.000Z,302.71
2022-08-02T14:02:46.000Z,303.4
2022-08-02T14:04:13.000Z,303.21
2022-08-02T14:06:19.000Z,302.96
2022-08-02T14:07:46.000Z,302.9
2022-08-02T14:09:52.000Z,303.59
2022-08-02T14:11:18.000Z,303.84
2022-08-02T14:13:25.000Z,303.96
2022-08-02T14:15:00.000Z,303.77
2022-08-02T14:17:06.000Z,303.71
2022-08-02T14:18:33.000Z,303.34
2022-08-02T14:20:39.000Z,302.65
2022-08-02T14:22:05.000Z,302.65
2022-08-02T14:24:25.000Z,302.84
2022-08-02T14:25:52.000Z,302.9
2022-08-02T14:27:58.000Z,303.15
2022-08-02T14:29:24.000Z,302.9
2022-08-02T14:31:31.000Z,302.27
2022-08-02T14:32:57.000Z,302.02
2022-08-02T14:35:03.000Z,302.09
2022-08-02T14:36:30.000Z,302.09
2022-08-02T14:38:36.000Z,302.4
2022-08-02T14:41:27.000Z,302.46
2022-08-02T14:42:54.000Z,302.59
2022-08-02T14:45:00.000Z,302.59
2022-08-02T14:46:27.000Z,302.52
2022-08-02T14:48:33.000Z,302.46
2022-08-02T14:49:59.000Z,302.65
2022-08-02T14:52:06.000Z,303.15
2022-08-02T14:53:32.000Z,303.21
2022-08-02T14:55:53.000Z,302.84
2022-08-02T14:57:20.000Z,302.71
2022-08-02T14:59:28.000Z,302.34
2022-08-02T15:00:54.000Z,302.15
2022-08-02T15:03:01.000Z,302.15
2022-08-02T15:04:27.000Z,302.09
2022-08-02T15:06:47.000Z,302.15
2022-08-02T15:08:13.000Z,302.09
2022-08-02T15:10:21.000Z,301.96
2022-08-02T15:11:48.000Z,302.21
2022-08-02T15:13:54.000Z,302.34
2022-08-02T15:15:23.000Z,302.21
2022-08-02T15:17:29.000Z,302.34
2022-08-02T15:20:21.000Z,302.21
2022-08-02T15:21:50.000Z,302.46
2022-08-02T15:24:01.000Z,302.52
2022-08-02T15:25:27.000Z,302.34
2022-08-02T15:27:33.000Z,302.09
2022-08-02T15:29:03.000Z,302.09
2022-08-02T15:31:10.000Z,302.02
2022-08-02T15:32:57.000Z,302.15
2022-08-02T15:35:03.000Z,302.15
2022-08-02T15:36:30.000Z,302.21
2022-08-02T15:38:36.000Z,302.4
2022-08-02T15:40:02.000Z,302.09
2022-08-02T15:42:08.000Z,301.96
2022-08-02T15:43:36.000Z,302.09
2022-08-02T15:46:04.000Z,301.84
2022-08-02T15:47:31.000Z,301.9
2022-08-02T15:49:37.000Z,302.21
2022-08-02T15:51:06.000Z,302.34
2022-08-02T15:53:12.000Z,302.46
2022-08-02T15:54:39.000Z,302.46
2022-08-02T15:56:45.000Z,302.84
2022-08-02T15:59:36.000Z,302.77
2022-08-02T16:01:03.000Z,302.71
2022-08-02T16:03:09.000Z,302.84
2022-08-02T16:04:35.000Z,302.96
2022-08-02T16:06:41.000Z,302.96
2022-08-02T16:08:08.000Z,302.77
2022-08-02T16:10:14.000Z,302.59
2022-08-02T16:11:41.000Z,302.4
2022-08-02T16:13:47.000Z,302.84
2022-08-02T16:15:18.000Z,303.15
2022-08-02T16:17:24.000Z,302.9
2022-08-02T16:19:19.000Z,302.77
2022-08-02T16:21:52.000Z,302.71
2022-08-02T16:23:18.000Z,302.71
2022-08-02T16:26:06.000Z,302.9
2022-08-02T16:27:32.000Z,302.65
2022-08-02T16:30:03.000Z,302.71
2022-08-02T16:31:30.000Z,302.77
2022-08-02T16:33:36.000Z,302.71
2022-08-02T16:35:03.000Z,302.52
2022-08-02T16:37:12.000Z,302.4
2022-08-02T16:40:04.000Z,302.4
2022-08-02T16:41:31.000Z,302.4
2022-08-02T16:43:56.000Z,302.59
2022-08-02T16:45:23.000Z,302.77
2022-08-02T16:47:29.000Z,302.4
2022-08-02T16:49:19.000Z,302.27
2022-08-02T16:53:43.000Z,302.4
2022-08-02T16:54:32.000Z,302.27
2022-08-02T16:56:00.000Z,302.15
2022-08-02T16:58:06.000Z,302.59
2022-08-02T16:59:34.000Z,302.52
2022-08-02T17:01:47.000Z,302.4
2022-08-02T17:03:36.000Z,302.77
2022-08-02T17:06:01.000Z,302.9
2022-08-02T17:07:28.000Z,302.96
2022-08-02T17:10:21.000Z,302.71
2022-08-02T17:11:48.000Z,302.71
2022-08-02T17:13:54.000Z,302.71
2022-08-02T17:15:23.000Z,302.65
2022-08-02T17:18:21.000Z,302.52
2022-08-02T17:19:51.000Z,302.77
2022-08-02T17:21:57.000Z,302.59
2022-08-02T17:24:42.000Z,302.59
2022-08-02T17:26:12.000Z,302.34
2022-08-02T17:28:19.000Z,302.15
2022-08-02T17:29:56.000Z,302.27
2022-08-02T17:32:03.000Z,302.21
2022-08-02T17:33:35.000Z,302.09
2022-08-02T17:35:42.000Z,301.84
2022-08-02T17:37:17.000Z,301.65
2022-08-02T17:39:23.000Z,301.59
2022-08-02T17:40:58.000Z,301.4
2022-08-02T17:43:08.000Z,301.15
2022-08-02T17:44:41.000Z,301.15
2022-08-02T17:46:53.000Z,301.02
2022-08-02T17:48:19.000Z,301.15
2022-08-02T17:50:33.000Z,301.09
2022-08-02T17:52:00.000Z,301.02
2022-08-02T17:54:57.000Z,300.71
2022-08-02T17:56:23.000Z,300.77
2022-08-02T17:58:29.000Z,300.59
2022-08-02T17:59:57.000Z,300.4
2022-08-02T18:02:08.000Z,300.34
2022-08-02T18:05:00.000Z,299.96
2022-08-02T18:06:28.000Z,299.96
2022-08-02T18:08:37.000Z,299.71
2022-08-02T18:10:06.000Z,299.65
2022-08-02T18:12:12.000Z,299.46
2022-08-02T18:13:42.000Z,299.46
2022-08-02T18:15:57.000Z,299.34
2022-08-02T18:17:24.000Z,299.21
2022-08-02T18:19:33.000Z,299.34
2022-08-02T18:21:18.000Z,299.27
2022-08-02T18:23:26.000Z,299.27
2022-08-02T18:24:53.000Z,299.21
2022-08-02T18:26:59.000Z,299.02
2022-08-02T18:28:26.000Z,298.84
2022-08-02T18:30:32.000Z,298.52
2022-08-02T18:32:00.000Z,298.46
2022-08-02T18:34:06.000Z,298.21
2022-08-02T18:35:32.000Z,298.02
2022-08-02T18:37:39.000Z,297.9
2022-08-02T18:39:12.000Z,297.84
2022-08-02T18:41:18.000Z,297.71
2022-08-02T18:44:10.000Z,297.65
2022-08-02T18:45:40.000Z,297.65
2022-08-02T18:48:19.000Z,297.46
2022-08-02T18:49:46.000Z,297.21
2022-08-02T18:52:00.000Z,297.02
2022-08-02T18:53:26.000Z,296.96
2022-08-02T18:55:46.000Z,296.9
2022-08-02T18:57:28.000Z,296.77
2022-08-02T19:00:23.000Z,296.52
2022-08-02T19:01:50.000Z,296.46
2022-08-02T19:03:58.000Z,296.21
2022-08-02T19:05:24.000Z,296.21
2022-08-02T19:07:58.000Z,296.15
2022-08-02T19:09:24.000Z,296.02
2022-08-02T19:11:31.000Z,295.96
2022-08-02T19:12:59.000Z,295.9
2022-08-02T19:15:06.000Z,295.77
2022-08-02T19:16:32.000Z,295.65
2022-08-02T19:18:42.000Z,295.59
2022-08-02T19:20:11.000Z,295.52
2022-08-02T19:22:23.000Z,295.34
2022-08-02T19:25:15.000Z,295.21
2022-08-02T19:26:41.000Z,295.09
2022-08-02T19:28:55.000Z,294.96
2022-08-02T19:30:23.000Z,294.9
2022-08-02T19:32:30.000Z,294.71
2022-08-02T19:34:07.000Z,294.65
2022-08-02T19:36:16.000Z,294.52
2022-08-02T19:37:43.000Z,294.52
2022-08-02T19:39:54.000Z,294.65
2022-08-02T19:41:23.000Z,294.65
2022-08-02T19:43:29.000Z,294.59
2022-08-02T19:45:53.000Z,294.59
2022-08-02T19:48:01.000Z,294.59
2022-08-02T19:49:29.000Z,294.34
2022-08-02T19:51:44.000Z,294.27
2022-08-02T19:53:20.000Z,294.27
2022-08-02T19:55:27.000Z,294.34
2022-08-02T19:57:26.000Z,294.21
2022-08-02T19:59:38.000Z,294.15
2022-08-02T20:01:05.000Z,294.09
2022-08-02T20:03:11.000Z,294.02
2022-08-02T20:06:05.000Z,294.02
2022-08-02T20:07:34.000Z,293.9
2022-08-02T20:09:59.000Z,293.77
2022-08-02T20:11:26.000Z,293.77
2022-08-02T20:13:38.000Z,293.71
2022-08-02T20:15:12.000Z,293.65
2022-08-02T20:17:19.000Z,293.59
2022-08-02T20:18:46.000Z,293.65
2022-08-02T20:20:52.000Z,293.59
2022-08-02T20:22:20.000Z,293.52
2022-08-02T20:24:26.000Z,293.46
2022-08-02T20:25:52.000Z,293.34
2022-08-02T20:28:00.000Z,293.34
2022-08-02T20:29:27.000Z,293.27
2022-08-02T20:54:29.000Z,292.71
2022-08-02T20:55:56.000Z,292.59
2022-08-02T20:58:02.000Z,292.59
2022-08-02T20:59:30.000Z,292.52
2022-08-02T21:01:36.000Z,292.4
2022-08-02T21:03:03.000Z,292.34
2022-08-02T21:05:10.000Z,292.4
2022-08-02T21:06:43.000Z,292.34
2022-08-02T21:08:51.000Z,292.15
2022-08-02T21:10:17.000Z,292.15
2022-08-02T21:12:28.000Z,292.21
2022-08-02T21:13:55.000Z,292.15
2022-08-02T21:16:12.000Z,292.09
2022-08-02T21:17:46.000Z,292.15
2022-08-02T21:20:01.000Z,292.09
2022-08-02T21:21:28.000Z,292.09
2022-08-02T21:23:34.000Z,292.09
2022-08-02T21:25:01.000Z,291.96
2022-08-02T21:27:13.000Z,291.84
2022-08-02T21:29:18.000Z,291.71
2022-08-02T21:31:24.000Z,291.59
2022-08-02T21:34:21.000Z,291.46
2022-08-02T21:35:51.000Z,291.46
2022-08-02T21:37:58.000Z,291.27
2022-08-02T21:39:24.000Z,291.27
2022-08-02T21:41:30.000Z,291.15
2022-08-02T21:43:10.000Z,291.27
2022-08-02T21:45:19.000Z,291.27
2022-08-02T21:46:46.000Z,291.34
2022-08-02T21:48:53.000Z,291.27
2022-08-02T21:50:20.000Z,291.09
2022-08-02T21:52:29.000Z,291.09
2022-08-02T21:53:59.000Z,291.21
2022-08-02T21:56:23.000Z,291.09
2022-08-02T21:57:50.000Z,291.02
2022-08-02T21:59:56.000Z,290.96
2022-08-02T22:01:22.000Z,290.9
2022-08-02T22:03:33.000Z,291.02
2022-08-02T22:05:00.000Z,291.02
2022-08-02T22:07:07.000Z,291.09
2022-08-02T22:08:34.000Z,290.96
2022-08-02T22:10:40.000Z,290.96
2022-08-02T22:13:32.000Z,290.96
2022-08-02T22:15:11.000Z,290.84
2022-08-02T22:17:18.000Z,290.65
2022-08-02T22:18:45.000Z,290.59
2022-08-02T22:20:56.000Z,290.46
2022-08-02T22:22:23.000Z,290.52
2022-08-02T22:24:32.000Z,290.65
2022-08-02T22:25:59.000Z,290.71
2022-08-02T22:28:05.000Z,290.71
2022-08-02T22:30:03.000Z,290.65
2022-08-02T22:32:13.000Z,290.59
2022-08-02T22:33:46.000Z,290.4
2022-08-02T22:36:05.000Z,290.21
2022-08-02T22:37:35.000Z,290.21
2022-08-02T22:40:21.000Z,290.15
2022-08-02T22:41:48.000Z,290.15
2022-08-02T22:44:11.000Z,290.34
2022-08-02T22:45:39.000Z,290.4
2022-08-02T22:47:45.000Z,290.4
2022-08-02T22:49:15.000Z,290.4
2022-08-02T22:51:55.000Z,290.34
2022-08-02T22:54:47.000Z,290.21
2022-08-02T22:56:15.000Z,290.09
2022-08-02T22:58:21.000Z,290.02
2022-08-02T22:59:50.000Z,289.96
2022-08-02T23:01:56.000Z,290.02
2022-08-02T23:03:22.000Z,290.02
2022-08-02T23:05:29.000Z,290.02
2022-08-02T23:06:55.000Z,289.96
2022-08-02T23:09:01.000Z,289.84
2022-08-02T23:10:28.000Z,289.84
2022-08-02T23:12:34.000Z,289.84
2022-08-02T23:14:00.000Z,289.77
2022-08-02T23:16:07.000Z,289.71
2022-08-02T23:17:33.000Z,289.71
2022-08-02T23:19:39.000Z,289.71
2022-08-02T23:21:06.000Z,289.77
2022-08-02T23:23:12.000Z,289.65
2022-08-02T23:24:38.000Z,289.52
2022-08-02T23:26:44.000Z,289.46
2022-08-02T23:28:11.000Z,289.46
2022-08-02T23:30:17.000Z,289.27
2022-08-02T23:33:08.000Z,289.4
2022-08-02T23:34:35.000Z,289.46
2022-08-02T23:36:41.000Z,289.27
2022-08-02T23:38:07.000Z,289.27
2022-08-02T23:40:13.000Z,289.27
2022-08-02T23:42:04.000Z,289.21
2022-08-02T23:44:10.000Z,289.21
2022-08-02T23:45:39.000Z,289.21
2022-08-02T23:47:45.000Z,289.27
2022-08-02T23:49:12.000Z,289.27
2022-08-02T23:51:18.000Z,289.27
2022-08-02T23:52:46.000Z,289.15